Un Akdeniz — TCTD2 — position and weather

sailwx.info

Track history (hours):
 
Tides and Currents Weather Stations Pressure Air Temp Water Temp Dewpoint Dewpoint Depression Visibility Wind Speed Wind Dir Waves Ship Positions

Un Akdeniz

Last reported at 2015-Aug-02 03:23 UTC. Time now 2015-Aug-02 14:25 UTC.
Position N 37°34' E 020°48'.

Length 192 m; draft 6.8 m.

Type: Ship (hazmat cat A). MMSI: 271002572.

Date/timePositionNaut miles runAvg speedWind from/ knotsBaromVisibWave heightAir tempDewpointWater temp
2015-Aug-02 03:23N 37°34' E 020°48'1618.9
2015-Aug-02 02:33N 37°46' E 020°35'11419.0
2015-Aug-01 20:33N 39°22' E 019°17'  
2015-Jul-29 16:24N 36°27' E 023°14'1719.3
2015-Jul-29 15:33N 36°41' E 023°25'1919.2
2015-Jul-29 14:33N 36°57' E 023°38'1919.1
2015-Jul-29 13:33N 37°13' E 023°50'1919.2
2015-Jul-29 12:33N 37°29' E 024°03'2518.7
2015-Jul-29 11:13N 37°49' E 024°23'  
2015-Jul-26 16:30N 37°49' E 024°34'2319.1
2015-Jul-26 15:18N 37°29' E 024°20'1419.0
2015-Jul-26 14:33N 37°18' E 024°09'1919.2
2015-Jul-26 13:33N 37°03' E 023°54'1919.2
2015-Jul-26 12:33N 36°48' E 023°39'2019.6
2015-Jul-26 11:33N 36°33' E 023°23'1817.9
2015-Jul-26 10:33N 36°24' E 023°04'  
Track history (hours):
 
Tides and Currents Weather Stations Pressure Air Temp Water Temp Dewpoint Dewpoint Depression Visibility Wind Speed Wind Dir Waves Ship Positions

Un Akdeniz

Last reported at 2015-Aug-02 03:23 UTC. Time now 2015-Aug-02 14:25 UTC.
Position N 37°34' E 020°48'.

Length 192 m; draft 6.8 m.

Type: Ship (hazmat cat A). MMSI: 271002572.

Date/timePositionNaut miles runAvg speedWind from/ knotsBaromVisibWave heightAir tempDewpointWater temp
2015-Aug-02 03:23N 37°34' E 020°48'1618.9
2015-Aug-02 02:33N 37°46' E 020°35'11419.0
2015-Aug-01 20:33N 39°22' E 019°17'  
2015-Jul-29 16:24N 36°27' E 023°14'1719.3
2015-Jul-29 15:33N 36°41' E 023°25'1919.2
2015-Jul-29 14:33N 36°57' E 023°38'1919.1
2015-Jul-29 13:33N 37°13' E 023°50'1919.2
2015-Jul-29 12:33N 37°29' E 024°03'2518.7
2015-Jul-29 11:13N 37°49' E 024°23'  
2015-Jul-26 16:30N 37°49' E 024°34'2319.1
2015-Jul-26 15:18N 37°29' E 024°20'1419.0
2015-Jul-26 14:33N 37°18' E 024°09'1919.2
2015-Jul-26 13:33N 37°03' E 023°54'1919.2
2015-Jul-26 12:33N 36°48' E 023°39'2019.6
2015-Jul-26 11:33N 36°33' E 023°23'1817.9
2015-Jul-26 10:33N 36°24' E 023°04'  

Dump ship's entire track history